sensor_id;sensor_type;location;lat;lon;timestamp;pressure;altitude;pressure_sealevel;temperature;humidity
13420;BME280;6781;58.440;15.470;2023-12-20T00:00:50;101287.94;;;1.39;100.00
13420;BME280;6781;58.440;15.470;2023-12-20T00:03:17;101284.69;;;1.34;100.00
13420;BME280;6781;58.440;15.470;2023-12-20T00:05:44;101283.78;;;1.36;100.00
13420;BME280;6781;58.440;15.470;2023-12-20T00:08:11;101293.06;;;1.39;100.00
13420;BME280;6781;58.440;15.470;2023-12-20T00:10:39;101291.31;;;1.41;100.00
13420;BME280;6781;58.440;15.470;2023-12-20T00:13:06;101271.03;;;1.35;100.00
13420;BME280;6781;58.440;15.470;2023-12-20T00:15:33;101277.72;;;1.39;100.00
13420;BME280;6781;58.440;15.470;2023-12-20T00:18:00;101272.81;;;1.33;100.00
13420;BME280;6781;58.440;15.470;2023-12-20T00:20:27;101278.81;;;1.32;100.00
13420;BME280;6781;58.440;15.470;2023-12-20T00:22:55;101272.03;;;1.30;100.00
13420;BME280;6781;58.440;15.470;2023-12-20T00:25:23;101280.59;;;1.28;100.00
13420;BME280;6781;58.440;15.470;2023-12-20T00:27:51;101286.38;;;1.35;100.00
13420;BME280;6781;58.440;15.470;2023-12-20T00:30:19;101288.03;;;1.36;100.00
13420;BME280;6781;58.440;15.470;2023-12-20T00:32:45;101295.72;;;1.36;100.00
13420;BME280;6781;58.440;15.470;2023-12-20T00:35:12;101294.03;;;1.35;100.00
13420;BME280;6781;58.440;15.470;2023-12-20T00:37:39;101298.25;;;1.36;100.00
13420;BME280;6781;58.440;15.470;2023-12-20T00:40:06;101296.59;;;1.35;100.00
13420;BME280;6781;58.440;15.470;2023-12-20T00:42:33;101304.97;;;1.40;100.00
13420;BME280;6781;58.440;15.470;2023-12-20T00:45:02;101303.19;;;1.42;100.00
13420;BME280;6781;58.440;15.470;2023-12-20T00:47:30;101304.00;;;1.44;100.00
13420;BME280;6781;58.440;15.470;2023-12-20T00:49:56;101308.13;;;1.48;100.00
13420;BME280;6781;58.440;15.470;2023-12-20T00:52:23;101289.41;;;1.47;100.00
13420;BME280;6781;58.440;15.470;2023-12-20T00:54:50;101287.59;;;1.51;100.00
13420;BME280;6781;58.440;15.470;2023-12-20T00:57:17;101295.97;;;1.56;100.00
13420;BME280;6781;58.440;15.470;2023-12-20T00:59:44;101301.81;;;1.59;100.00
13420;BME280;6781;58.440;15.470;2023-12-20T01:02:12;101308.50;;;1.63;100.00
13420;BME280;6781;58.440;15.470;2023-12-20T01:04:39;101314.25;;;1.70;100.00
13420;BME280;6781;58.440;15.470;2023-12-20T01:07:07;101325.13;;;1.77;100.00
13420;BME280;6781;58.440;15.470;2023-12-20T01:09:34;101327.44;;;1.84;100.00
13420;BME280;6781;58.440;15.470;2023-12-20T01:12:01;101330.69;;;1.89;100.00
13420;BME280;6781;58.440;15.470;2023-12-20T01:14:28;101328.81;;;1.94;100.00
13420;BME280;6781;58.440;15.470;2023-12-20T01:16:54;101325.38;;;1.95;100.00
13420;BME280;6781;58.440;15.470;2023-12-20T01:19:24;101329.47;;;2.01;100.00
13420;BME280;6781;58.440;15.470;2023-12-20T01:21:52;101331.03;;;2.05;100.00
13420;BME280;6781;58.440;15.470;2023-12-20T01:24:19;101323.31;;;2.07;100.00
13420;BME280;6781;58.440;15.470;2023-12-20T01:26:45;101325.81;;;2.08;100.00
13420;BME280;6781;58.440;15.470;2023-12-20T01:29:12;101322.38;;;2.09;100.00
13420;BME280;6781;58.440;15.470;2023-12-20T01:31:40;101324.06;;;2.10;100.00
13420;BME280;6781;58.440;15.470;2023-12-20T01:34:07;101326.56;;;2.12;100.00
13420;BME280;6781;58.440;15.470;2023-12-20T01:36:35;101321.34;;;2.15;100.00
13420;BME280;6781;58.440;15.470;2023-12-20T01:39:02;101314.38;;;2.20;100.00
13420;BME280;6781;58.440;15.470;2023-12-20T01:41:29;101311.66;;;2.24;100.00
13420;BME280;6781;58.440;15.470;2023-12-20T01:43:56;101310.72;;;2.27;100.00
13420;BME280;6781;58.440;15.470;2023-12-20T01:46:23;101306.38;;;2.29;100.00
13420;BME280;6781;58.440;15.470;2023-12-20T01:48:50;101312.94;;;2.38;100.00
13420;BME280;6781;58.440;15.470;2023-12-20T01:51:16;101309.47;;;2.39;100.00
13420;BME280;6781;58.440;15.470;2023-12-20T01:53:45;101305.09;;;2.42;100.00
13420;BME280;6781;58.440;15.470;2023-12-20T01:56:13;101300.72;;;2.46;100.00
13420;BME280;6781;58.440;15.470;2023-12-20T01:58:42;101296.44;;;2.46;100.00
13420;BME280;6781;58.440;15.470;2023-12-20T02:01:10;101289.53;;;2.48;100.00
13420;BME280;6781;58.440;15.470;2023-12-20T02:03:37;101291.97;;;2.51;100.00
13420;BME280;6781;58.440;15.470;2023-12-20T02:06:04;101282.41;;;2.56;100.00
13420;BME280;6781;58.440;15.470;2023-12-20T02:08:31;101275.53;;;2.58;100.00
13420;BME280;6781;58.440;15.470;2023-12-20T02:10:59;101264.56;;;2.55;100.00
13420;BME280;6781;58.440;15.470;2023-12-20T02:13:26;101259.94;;;2.65;100.00
13420;BME280;6781;58.440;15.470;2023-12-20T02:15:53;101261.41;;;2.72;100.00
13420;BME280;6781;58.440;15.470;2023-12-20T02:18:21;101252.78;;;2.74;100.00
13420;BME280;6781;58.440;15.470;2023-12-20T02:20:47;101239.91;;;2.76;100.00
13420;BME280;6781;58.440;15.470;2023-12-20T02:23:16;101232.25;;;2.76;100.00
13420;BME280;6781;58.440;15.470;2023-12-20T02:25:43;101227.84;;;2.79;100.00
13420;BME280;6781;58.440;15.470;2023-12-20T02:28:10;101219.22;;;2.82;100.00
13420;BME280;6781;58.440;15.470;2023-12-20T02:30:37;101204.84;;;2.78;100.00
13420;BME280;6781;58.440;15.470;2023-12-20T02:33:04;101190.94;;;2.85;100.00
13420;BME280;6781;58.440;15.470;2023-12-20T02:35:34;101183.06;;;2.89;100.00
13420;BME280;6781;58.440;15.470;2023-12-20T02:38:01;101165.19;;;2.88;100.00
13420;BME280;6781;58.440;15.470;2023-12-20T02:40:29;101151.38;;;2.92;100.00
13420;BME280;6781;58.440;15.470;2023-12-20T02:42:56;101141.91;;;2.94;100.00
13420;BME280;6781;58.440;15.470;2023-12-20T02:45:22;101131.78;;;2.91;100.00
13420;BME280;6781;58.440;15.470;2023-12-20T02:47:49;101118.97;;;2.91;100.00
13420;BME280;6781;58.440;15.470;2023-12-20T02:50:16;101120.66;;;2.92;100.00
13420;BME280;6781;58.440;15.470;2023-12-20T02:52:44;101101.88;;;2.91;100.00
13420;BME280;6781;58.440;15.470;2023-12-20T02:55:11;101089.84;;;2.93;100.00
13420;BME280;6781;58.440;15.470;2023-12-20T02:57:39;101088.13;;;2.94;100.00
13420;BME280;6781;58.440;15.470;2023-12-20T03:00:07;101084.66;;;2.95;100.00
13420;BME280;6781;58.440;15.470;2023-12-20T03:05:09;101070.97;;;2.96;100.00
13420;BME280;6781;58.440;15.470;2023-12-20T03:07:36;101063.94;;;3.01;100.00
13420;BME280;6781;58.440;15.470;2023-12-20T03:10:04;101057.13;;;3.00;100.00
13420;BME280;6781;58.440;15.470;2023-12-20T03:12:31;101051.19;;;3.00;100.00
13420;BME280;6781;58.440;15.470;2023-12-20T03:14:59;101035.81;;;3.00;100.00
13420;BME280;6781;58.440;15.470;2023-12-20T03:17:26;101032.28;;;3.02;100.00
13420;BME280;6781;58.440;15.470;2023-12-20T03:19:53;101028.84;;;3.03;100.00
13420;BME280;6781;58.440;15.470;2023-12-20T03:22:20;101019.41;;;3.04;100.00
13420;BME280;6781;58.440;15.470;2023-12-20T03:24:46;101008.41;;;3.02;100.00
13420;BME280;6781;58.440;15.470;2023-12-20T03:27:13;101002.44;;;3.01;100.00
13420;BME280;6781;58.440;15.470;2023-12-20T03:29:40;100995.53;;;3.03;100.00
13420;BME280;6781;58.440;15.470;2023-12-20T03:32:08;100981.81;;;3.04;100.00
13420;BME280;6781;58.440;15.470;2023-12-20T03:34:35;100981.69;;;3.07;100.00
13420;BME280;6781;58.440;15.470;2023-12-20T03:37:02;100974.91;;;3.06;100.00
13420;BME280;6781;58.440;15.470;2023-12-20T03:39:29;100966.34;;;3.07;100.00
13420;BME280;6781;58.440;15.470;2023-12-20T03:41:56;100963.69;;;3.09;100.00
13420;BME280;6781;58.440;15.470;2023-12-20T03:44:23;100952.50;;;3.11;100.00
13420;BME280;6781;58.440;15.470;2023-12-20T03:46:49;100942.38;;;3.08;100.00
13420;BME280;6781;58.440;15.470;2023-12-20T03:49:18;100931.28;;;3.08;100.00
13420;BME280;6781;58.440;15.470;2023-12-20T03:51:45;100923.53;;;3.09;100.00
13420;BME280;6781;58.440;15.470;2023-12-20T03:54:11;100920.91;;;3.11;100.00
13420;BME280;6781;58.440;15.470;2023-12-20T03:56:38;100913.31;;;3.09;100.00
13420;BME280;6781;58.440;15.470;2023-12-20T03:59:05;100898.75;;;3.10;100.00
13420;BME280;6781;58.440;15.470;2023-12-20T04:01:32;100894.47;;;3.10;100.00
13420;BME280;6781;58.440;15.470;2023-12-20T04:03:59;100883.31;;;3.11;100.00
13420;BME280;6781;58.440;15.470;2023-12-20T04:06:27;100851.81;;;3.09;100.00
13420;BME280;6781;58.440;15.470;2023-12-20T04:08:54;100856.94;;;3.09;100.00
13420;BME280;6781;58.440;15.470;2023-12-20T04:11:20;100840.66;;;3.10;100.00
13420;BME280;6781;58.440;15.470;2023-12-20T04:13:47;100834.63;;;3.11;100.00
13420;BME280;6781;58.440;15.470;2023-12-20T04:16:14;100830.47;;;3.09;100.00
13420;BME280;6781;58.440;15.470;2023-12-20T04:18:41;100816.84;;;3.08;100.00
13420;BME280;6781;58.440;15.470;2023-12-20T04:21:08;100817.59;;;3.10;100.00
13420;BME280;6781;58.440;15.470;2023-12-20T04:23:36;100810.69;;;3.12;100.00
13420;BME280;6781;58.440;15.470;2023-12-20T04:26:03;100803.13;;;3.09;100.00
13420;BME280;6781;58.440;15.470;2023-12-20T04:28:30;100815.13;;;3.09;100.00
13420;BME280;6781;58.440;15.470;2023-12-20T04:30:56;100815.13;;;3.09;100.00
13420;BME280;6781;58.440;15.470;2023-12-20T04:33:23;100800.56;;;3.09;100.00
13420;BME280;6781;58.440;15.470;2023-12-20T04:35:50;100798.00;;;3.09;100.00
13420;BME280;6781;58.440;15.470;2023-12-20T04:38:17;100794.47;;;3.12;100.00
13420;BME280;6781;58.440;15.470;2023-12-20T04:40:45;100793.66;;;3.11;100.00
13420;BME280;6781;58.440;15.470;2023-12-20T04:43:13;100790.06;;;3.15;100.00
13420;BME280;6781;58.440;15.470;2023-12-20T04:45:40;100783.25;;;3.14;100.00
13420;BME280;6781;58.440;15.470;2023-12-20T04:48:07;100776.63;;;3.10;100.00
13420;BME280;6781;58.440;15.470;2023-12-20T04:50:34;100780.69;;;3.14;100.00
13420;BME280;6781;58.440;15.470;2023-12-20T04:53:01;100774.69;;;3.15;100.00
13420;BME280;6781;58.440;15.470;2023-12-20T04:55:28;100772.75;;;3.20;100.00
13420;BME280;6781;58.440;15.470;2023-12-20T04:57:56;100761.59;;;3.21;100.00
13420;BME280;6781;58.440;15.470;2023-12-20T05:00:23;100749.59;;;3.22;100.00
13420;BME280;6781;58.440;15.470;2023-12-20T05:02:51;100740.19;;;3.22;100.00
13420;BME280;6781;58.440;15.470;2023-12-20T05:05:17;100731.47;;;3.26;100.00
13420;BME280;6781;58.440;15.470;2023-12-20T05:07:44;100720.38;;;3.26;100.00
13420;BME280;6781;58.440;15.470;2023-12-20T05:10:12;100713.44;;;3.28;100.00
13420;BME280;6781;58.440;15.470;2023-12-20T05:12:38;100707.34;;;3.31;100.00
13420;BME280;6781;58.440;15.470;2023-12-20T05:15:08;100699.72;;;3.29;100.00
13420;BME280;6781;58.440;15.470;2023-12-20T05:17:35;100694.59;;;3.29;100.00
13420;BME280;6781;58.440;15.470;2023-12-20T05:20:01;100686.69;;;3.34;100.00
13420;BME280;6781;58.440;15.470;2023-12-20T05:22:28;100676.31;;;3.37;100.00
13420;BME280;6781;58.440;15.470;2023-12-20T05:24:55;100670.41;;;3.35;100.00
13420;BME280;6781;58.440;15.470;2023-12-20T05:27:22;100656.78;;;3.34;100.00
13420;BME280;6781;58.440;15.470;2023-12-20T05:29:49;100653.31;;;3.35;100.00
13420;BME280;6781;58.440;15.470;2023-12-20T05:32:17;100645.69;;;3.34;100.00
13420;BME280;6781;58.440;15.470;2023-12-20T05:34:43;100620.22;;;3.31;100.00
13420;BME280;6781;58.440;15.470;2023-12-20T05:37:10;100607.47;;;3.29;100.00
13420;BME280;6781;58.440;15.470;2023-12-20T05:39:37;100603.94;;;3.32;100.00
13420;BME280;6781;58.440;15.470;2023-12-20T05:42:04;100589.47;;;3.31;100.00
13420;BME280;6781;58.440;15.470;2023-12-20T05:44:31;100579.22;;;3.31;100.00
13420;BME280;6781;58.440;15.470;2023-12-20T05:46:58;100566.56;;;3.28;100.00
13420;BME280;6781;58.440;15.470;2023-12-20T05:49:27;100559.63;;;3.30;100.00
13420;BME280;6781;58.440;15.470;2023-12-20T05:51:53;100561.88;;;3.36;100.00
13420;BME280;6781;58.440;15.470;2023-12-20T05:54:20;100548.25;;;3.35;100.00
13420;BME280;6781;58.440;15.470;2023-12-20T05:56:48;100545.81;;;3.32;100.00
13420;BME280;6781;58.440;15.470;2023-12-20T05:59:15;100523.75;;;3.30;100.00
13420;BME280;6781;58.440;15.470;2023-12-20T06:01:42;100521.19;;;3.30;100.00
13420;BME280;6781;58.440;15.470;2023-12-20T06:04:09;100514.41;;;3.29;100.00
13420;BME280;6781;58.440;15.470;2023-12-20T06:06:41;100507.63;;;3.28;100.00
13420;BME280;6781;58.440;15.470;2023-12-20T06:09:08;100500.84;;;3.26;100.00
13420;BME280;6781;58.440;15.470;2023-12-20T06:11:35;100501.66;;;3.27;100.00
13420;BME280;6781;58.440;15.470;2023-12-20T06:14:02;100499.84;;;3.29;100.00
13420;BME280;6781;58.440;15.470;2023-12-20T06:16:29;100510.34;;;3.24;100.00
13420;BME280;6781;58.440;15.470;2023-12-20T06:18:55;100517.88;;;3.28;100.00
13420;BME280;6781;58.440;15.470;2023-12-20T06:21:22;100522.09;;;3.29;100.00
13420;BME280;6781;58.440;15.470;2023-12-20T06:23:51;100532.34;;;3.29;100.00
13420;BME280;6781;58.440;15.470;2023-12-20T06:26:17;100536.72;;;3.26;100.00
13420;BME280;6781;58.440;15.470;2023-12-20T06:28:44;100554.56;;;3.28;100.00
13420;BME280;6781;58.440;15.470;2023-12-20T06:31:11;100547.25;;;3.20;100.00
13420;BME280;6781;58.440;15.470;2023-12-20T06:33:38;100570.25;;;3.22;100.00
13420;BME280;6781;58.440;15.470;2023-12-20T06:36:07;100586.44;;;3.22;100.00
13420;BME280;6781;58.440;15.470;2023-12-20T06:38:34;100599.09;;;3.25;100.00
13420;BME280;6781;58.440;15.470;2023-12-20T06:41:02;100600.00;;;3.24;100.00
13420;BME280;6781;58.440;15.470;2023-12-20T06:43:29;100606.03;;;3.23;100.00
13420;BME280;6781;58.440;15.470;2023-12-20T06:45:57;100612.22;;;3.19;100.00
13420;BME280;6781;58.440;15.470;2023-12-20T06:48:24;100618.94;;;3.22;100.00
13420;BME280;6781;58.440;15.470;2023-12-20T06:50:51;100629.09;;;3.23;100.00
13420;BME280;6781;58.440;15.470;2023-12-20T06:53:17;100644.63;;;3.20;100.00
13420;BME280;6781;58.440;15.470;2023-12-20T06:55:44;100655.84;;;3.18;100.00
13420;BME280;6781;58.440;15.470;2023-12-20T06:58:13;100659.38;;;3.15;100.00
13420;BME280;6781;58.440;15.470;2023-12-20T07:00:39;100674.53;;;3.20;100.00
13420;BME280;6781;58.440;15.470;2023-12-20T07:03:06;100678.84;;;3.19;100.00
13420;BME280;6781;58.440;15.470;2023-12-20T07:05:33;100689.09;;;3.19;100.00
13420;BME280;6781;58.440;15.470;2023-12-20T07:08:02;100694.06;;;3.22;100.00
13420;BME280;6781;58.440;15.470;2023-12-20T07:10:30;100696.16;;;3.14;100.00
13420;BME280;6781;58.440;15.470;2023-12-20T07:12:56;100707.91;;;3.18;100.00
13420;BME280;6781;58.440;15.470;2023-12-20T07:15:25;100718.31;;;3.15;100.00
13420;BME280;6781;58.440;15.470;2023-12-20T07:17:52;100729.47;;;3.14;100.00
13420;BME280;6781;58.440;15.470;2023-12-20T07:20:18;100732.16;;;3.11;100.00
13420;BME280;6781;58.440;15.470;2023-12-20T07:22:45;100746.63;;;3.12;100.00
13420;BME280;6781;58.440;15.470;2023-12-20T07:25:12;100756.25;;;3.07;100.00
13420;BME280;6781;58.440;15.470;2023-12-20T07:27:39;100767.28;;;3.09;100.00
13420;BME280;6781;58.440;15.470;2023-12-20T07:30:06;100779.31;;;3.07;100.00
13420;BME280;6781;58.440;15.470;2023-12-20T07:32:34;100792.25;;;3.04;100.00
13420;BME280;6781;58.440;15.470;2023-12-20T07:35:01;100798.28;;;3.03;100.00
13420;BME280;6781;58.440;15.470;2023-12-20T07:37:28;100811.22;;;3.00;100.00
13420;BME280;6781;58.440;15.470;2023-12-20T07:39:55;100826.59;;;3.00;100.00
13420;BME280;6781;58.440;15.470;2023-12-20T07:42:22;100828.41;;;2.98;100.00
13420;BME280;6781;58.440;15.470;2023-12-20T07:44:49;100838.78;;;2.95;100.00
13420;BME280;6781;58.440;15.470;2023-12-20T07:47:16;100855.66;;;2.99;100.00
13420;BME280;6781;58.440;15.470;2023-12-20T07:49:48;100860.84;;;2.98;100.00
13420;BME280;6781;58.440;15.470;2023-12-20T07:52:16;100871.16;;;2.96;100.00
13420;BME280;6781;58.440;15.470;2023-12-20T07:54:43;100873.81;;;2.94;100.00
13420;BME280;6781;58.440;15.470;2023-12-20T07:57:10;100879.69;;;2.97;100.00
13420;BME280;6781;58.440;15.470;2023-12-20T07:59:37;100892.50;;;2.97;100.00
13420;BME280;6781;58.440;15.470;2023-12-20T08:02:04;100895.13;;;2.95;100.00
13420;BME280;6781;58.440;15.470;2023-12-20T08:04:30;100899.41;;;2.94;100.00
13420;BME280;6781;58.440;15.470;2023-12-20T08:06:59;100910.50;;;2.95;100.00
13420;BME280;6781;58.440;15.470;2023-12-20T08:09:26;100912.03;;;2.99;100.00
13420;BME280;6781;58.440;15.470;2023-12-20T08:11:52;100915.47;;;2.98;100.00
13420;BME280;6781;58.440;15.470;2023-12-20T08:14:21;100919.66;;;3.01;100.00
13420;BME280;6781;58.440;15.470;2023-12-20T08:16:48;100918.81;;;3.00;100.00
13420;BME280;6781;58.440;15.470;2023-12-20T08:19:14;100923.81;;;3.03;100.00
13420;BME280;6781;58.440;15.470;2023-12-20T08:21:41;100931.50;;;3.03;100.00
13420;BME280;6781;58.440;15.470;2023-12-20T08:24:09;100932.25;;;3.05;100.00
13420;BME280;6781;58.440;15.470;2023-12-20T08:26:36;100927.13;;;3.05;100.00
13420;BME280;6781;58.440;15.470;2023-12-20T08:29:04;100929.56;;;3.08;100.00
13420;BME280;6781;58.440;15.470;2023-12-20T08:31:31;100943.91;;;3.12;100.00
13420;BME280;6781;58.440;15.470;2023-12-20T08:33:57;100936.16;;;3.14;100.00
13420;BME280;6781;58.440;15.470;2023-12-20T08:36:24;100943.78;;;3.15;100.00
13420;BME280;6781;58.440;15.470;2023-12-20T08:38:51;100936.09;;;3.15;100.00
13420;BME280;6781;58.440;15.470;2023-12-20T08:41:19;100948.66;;;3.21;100.00
13420;BME280;6781;58.440;15.470;2023-12-20T08:43:46;100949.47;;;3.22;100.00
13420;BME280;6781;58.440;15.470;2023-12-20T08:46:14;100946.97;;;3.20;100.00
13420;BME280;6781;58.440;15.470;2023-12-20T08:48:41;100947.81;;;3.21;100.00
13420;BME280;6781;58.440;15.470;2023-12-20T08:51:08;100957.22;;;3.20;100.00
13420;BME280;6781;58.440;15.470;2023-12-20T08:53:35;100960.56;;;3.22;100.00
13420;BME280;6781;58.440;15.470;2023-12-20T08:56:01;100958.75;;;3.24;100.00
13420;BME280;6781;58.440;15.470;2023-12-20T08:58:32;100953.63;;;3.24;100.00
13420;BME280;6781;58.440;15.470;2023-12-20T09:00:58;100952.69;;;3.27;100.00
13420;BME280;6781;58.440;15.470;2023-12-20T09:03:25;100961.06;;;3.31;100.00
13420;BME280;6781;58.440;15.470;2023-12-20T09:05:52;100958.50;;;3.31;100.00
13420;BME280;6781;58.440;15.470;2023-12-20T09:08:19;100949.28;;;3.26;100.00
13420;BME280;6781;58.440;15.470;2023-12-20T09:10:45;100952.69;;;3.27;100.00
13420;BME280;6781;58.440;15.470;2023-12-20T09:13:12;100950.19;;;3.25;100.00
13420;BME280;6781;58.440;15.470;2023-12-20T09:15:41;100938.41;;;3.21;100.00
13420;BME280;6781;58.440;15.470;2023-12-20T09:18:07;100936.72;;;3.20;100.00
13420;BME280;6781;58.440;15.470;2023-12-20T09:20:35;100942.63;;;3.22;100.00
13420;BME280;6781;58.440;15.470;2023-12-20T09:23:01;100941.59;;;3.26;100.00
13420;BME280;6781;58.440;15.470;2023-12-20T09:25:28;100931.34;;;3.26;100.00
13420;BME280;6781;58.440;15.470;2023-12-20T09:27:55;100938.97;;;3.28;100.00
13420;BME280;6781;58.440;15.470;2023-12-20T09:30:22;100932.03;;;3.30;100.00
13420;BME280;6781;58.440;15.470;2023-12-20T09:32:50;100926.97;;;3.29;100.00
13420;BME280;6781;58.440;15.470;2023-12-20T09:35:17;100931.97;;;3.32;100.00
13420;BME280;6781;58.440;15.470;2023-12-20T09:37:43;100918.41;;;3.30;100.00
13420;BME280;6781;58.440;15.470;2023-12-20T09:40:12;100922.50;;;3.34;100.00
13420;BME280;6781;58.440;15.470;2023-12-20T09:42:43;100929.16;;;3.38;100.00
13420;BME280;6781;58.440;15.470;2023-12-20T09:45:13;100920.56;;;3.39;100.00
13420;BME280;6781;58.440;15.470;2023-12-20T09:47:41;100913.63;;;3.41;100.00
13420;BME280;6781;58.440;15.470;2023-12-20T09:50:10;100899.03;;;3.43;100.00
13420;BME280;6781;58.440;15.470;2023-12-20T09:52:37;100899.78;;;3.45;100.00
13420;BME280;6781;58.440;15.470;2023-12-20T09:55:05;100890.25;;;3.47;100.00
13420;BME280;6781;58.440;15.470;2023-12-20T09:57:33;100884.22;;;3.48;100.00
13420;BME280;6781;58.440;15.470;2023-12-20T10:00:00;100875.63;;;3.49;100.00
13420;BME280;6781;58.440;15.470;2023-12-20T10:02:27;100869.75;;;3.47;100.00
13420;BME280;6781;58.440;15.470;2023-12-20T10:04:55;100867.88;;;3.50;100.00
13420;BME280;6781;58.440;15.470;2023-12-20T10:07:25;100865.38;;;3.49;100.00
13420;BME280;6781;58.440;15.470;2023-12-20T10:09:52;100857.56;;;3.52;100.00
13420;BME280;6781;58.440;15.470;2023-12-20T10:12:20;100844.81;;;3.50;100.00
13420;BME280;6781;58.440;15.470;2023-12-20T10:14:47;100841.28;;;3.53;100.00
13420;BME280;6781;58.440;15.470;2023-12-20T10:17:14;100833.38;;;3.57;100.00
13420;BME280;6781;58.440;15.470;2023-12-20T10:19:42;100828.94;;;3.61;100.00
13420;BME280;6781;58.440;15.470;2023-12-20T10:22:09;100816.88;;;3.63;100.00
13420;BME280;6781;58.440;15.470;2023-12-20T10:24:38;100804.94;;;3.62;100.00
13420;BME280;6781;58.440;15.470;2023-12-20T10:27:07;100799.69;;;3.65;100.00
13420;BME280;6781;58.440;15.470;2023-12-20T10:29:34;100784.16;;;3.68;100.00
13420;BME280;6781;58.440;15.470;2023-12-20T10:32:12;100767.09;;;3.67;100.00
13420;BME280;6781;58.440;15.470;2023-12-20T10:34:58;100762.66;;;3.71;100.00
13420;BME280;6781;58.440;15.470;2023-12-20T10:37:52;100748.72;;;3.76;100.00
13420;BME280;6781;58.440;15.470;2023-12-20T10:43:15;100732.06;;;3.85;100.00
13420;BME280;6781;58.440;15.470;2023-12-20T10:45:42;100723.38;;;3.87;100.00
13420;BME280;6781;58.440;15.470;2023-12-20T10:48:09;100716.59;;;3.86;100.00
13420;BME280;6781;58.440;15.470;2023-12-20T10:50:37;100701.03;;;3.89;100.00
13420;BME280;6781;58.440;15.470;2023-12-20T10:53:05;100689.19;;;3.87;100.00
13420;BME280;6781;58.440;15.470;2023-12-20T10:55:32;100675.53;;;3.86;100.00
13420;BME280;6781;58.440;15.470;2023-12-20T10:58:11;100676.44;;;3.85;100.00
13420;BME280;6781;58.440;15.470;2023-12-20T11:00:41;100651.88;;;3.81;100.00
13420;BME280;6781;58.440;15.470;2023-12-20T11:03:11;100643.41;;;3.79;100.00
13420;BME280;6781;58.440;15.470;2023-12-20T11:05:46;100633.00;;;3.82;100.00
13420;BME280;6781;58.440;15.470;2023-12-20T11:08:17;100629.53;;;3.83;100.00
13420;BME280;6781;58.440;15.470;2023-12-20T11:11:07;100622.00;;;3.80;100.00
13420;BME280;6781;58.440;15.470;2023-12-20T11:13:55;100609.25;;;3.79;100.00
13420;BME280;6781;58.440;15.470;2023-12-20T11:16:41;100588.81;;;3.77;100.00
13420;BME280;6781;58.440;15.470;2023-12-20T11:19:07;100578.69;;;3.74;100.00
13420;BME280;6781;58.440;15.470;2023-12-20T11:21:34;100567.84;;;3.69;100.00
13420;BME280;6781;58.440;15.470;2023-12-20T11:24:01;100549.47;;;3.61;100.00
13420;BME280;6781;58.440;15.470;2023-12-20T11:26:29;100534.47;;;3.53;100.00
13420;BME280;6781;58.440;15.470;2023-12-20T11:29:02;100514.47;;;3.44;100.00
13420;BME280;6781;58.440;15.470;2023-12-20T11:31:50;100508.66;;;3.41;100.00
13420;BME280;6781;58.440;15.470;2023-12-20T11:34:17;100494.41;;;3.35;100.00
13420;BME280;6781;58.440;15.470;2023-12-20T11:36:44;100499.69;;;3.32;100.00
13420;BME280;6781;58.440;15.470;2023-12-20T11:39:11;100488.94;;;3.25;100.00
13420;BME280;6781;58.440;15.470;2023-12-20T11:41:38;100466.09;;;3.21;100.00
13420;BME280;6781;58.440;15.470;2023-12-20T11:44:05;100465.94;;;3.24;100.00
13420;BME280;6781;58.440;15.470;2023-12-20T11:46:32;100449.91;;;3.20;100.00
13420;BME280;6781;58.440;15.470;2023-12-20T11:49:01;100446.91;;;3.12;100.00
13420;BME280;6781;58.440;15.470;2023-12-20T11:51:30;100436.66;;;3.12;100.00
13420;BME280;6781;58.440;15.470;2023-12-20T11:53:56;100428.22;;;3.10;100.00
13420;BME280;6781;58.440;15.470;2023-12-20T11:56:23;100413.16;;;3.04;100.00
13420;BME280;6781;58.440;15.470;2023-12-20T11:58:50;100403.13;;;3.00;100.00
13420;BME280;6781;58.440;15.470;2023-12-20T12:01:17;100394.13;;;2.92;100.00
13420;BME280;6781;58.440;15.470;2023-12-20T12:03:48;100394.78;;;2.96;100.00
13420;BME280;6781;58.440;15.470;2023-12-20T12:06:30;100386.03;;;3.00;100.00
13420;BME280;6781;58.440;15.470;2023-12-20T12:08:57;100395.97;;;3.06;100.00
13420;BME280;6781;58.440;15.470;2023-12-20T12:11:23;100419.16;;;3.20;100.00
13420;BME280;6781;58.440;15.470;2023-12-20T12:13:50;100407.09;;;3.22;100.00
13420;BME280;6781;58.440;15.470;2023-12-20T12:16:17;100397.81;;;3.20;100.00
13420;BME280;6781;58.440;15.470;2023-12-20T12:18:45;100382.25;;;3.07;100.00
13420;BME280;6781;58.440;15.470;2023-12-20T12:21:27;100379.69;;;3.07;100.00
13420;BME280;6781;58.440;15.470;2023-12-20T12:23:55;100372.31;;;3.01;100.00
13420;BME280;6781;58.440;15.470;2023-12-20T12:26:32;100363.16;;;2.97;100.00
13420;BME280;6781;58.440;15.470;2023-12-20T12:29:13;100354.78;;;2.93;100.00
13420;BME280;6781;58.440;15.470;2023-12-20T12:31:40;100346.59;;;2.87;100.00
13420;BME280;6781;58.440;15.470;2023-12-20T12:34:06;100345.09;;;2.83;100.00
13420;BME280;6781;58.440;15.470;2023-12-20T12:36:34;100350.38;;;2.80;100.00
13420;BME280;6781;58.440;15.470;2023-12-20T12:39:03;100340.13;;;2.80;100.00
13420;BME280;6781;58.440;15.470;2023-12-20T12:41:31;100338.47;;;2.79;100.00
13420;BME280;6781;58.440;15.470;2023-12-20T12:43:59;100329.28;;;2.75;100.00
13420;BME280;6781;58.440;15.470;2023-12-20T12:46:26;100325.00;;;2.75;100.00
13420;BME280;6781;58.440;15.470;2023-12-20T12:49:27;100313.94;;;2.75;100.00
13420;BME280;6781;58.440;15.470;2023-12-20T12:52:11;100312.47;;;2.86;100.00
13420;BME280;6781;58.440;15.470;2023-12-20T12:54:43;100296.13;;;2.89;100.00
13420;BME280;6781;58.440;15.470;2023-12-20T12:57:11;100300.28;;;2.91;100.00
13420;BME280;6781;58.440;15.470;2023-12-20T12:59:41;100290.84;;;2.92;100.00